Time;durP1;ratioP1;P1;durP2;ratioP2;P2;SDS_P1;SDS_P2;PMS_P1;PMS_P2;Temp;Humidity;BMP_temperature;BMP_pressure;BME280_temperature;BME280_humidity;BME280_pressure;Samples;Min_cycle;Max_cycle;Signal;HPM_P1;HPM_P2
2023/09/26 00:08:22;;;;;;;0.80;0.60;;;;;;;;;;20677599;28;20279;-85
2023/09/26 00:18:23;;;;;;;1.20;0.70;;;;;;;;;;20632529;28;20228;-83
2023/09/26 00:28:25;;;;;;;1.13;0.80;;;;;;;;;;20626443;28;20255;-85
2023/09/26 00:38:27;;;;;;;1.23;0.80;;;;;;;;;;20706832;28;20791;-85
2023/09/26 00:48:29;;;;;;;2.10;0.80;;;;;;;;;;20659670;28;20220;-86
2023/09/26 00:58:31;;;;;;;0.93;0.57;;;;;;;;;;20609643;28;20232;-85
2023/09/26 01:08:33;;;;;;;1.10;0.73;;;;;;;;;;20623528;28;20270;-85
2023/09/26 01:18:35;;;;;;;0.90;0.70;;;;;;;;;;20646961;28;20952;-83
2023/09/26 01:28:36;;;;;;;1.67;0.63;;;;;;;;;;20637014;28;20282;-84
2023/09/26 01:38:38;;;;;;;1.17;0.60;;;;;;;;;;20637381;28;20270;-85
2023/09/26 01:48:40;;;;;;;1.17;0.70;;;;;;;;;;20660966;28;20254;-84
2023/09/26 01:58:42;;;;;;;1.10;0.70;;;;;;;;;;20669348;28;20224;-84
2023/09/26 02:08:43;;;;;;;0.87;0.70;;;;;;;;;;20628845;28;20223;-85
2023/09/26 02:18:46;;;;;;;1.37;0.93;;;;;;;;;;20684030;28;20243;-85
2023/09/26 02:28:48;;;;;;;1.03;0.70;;;;;;;;;;20644454;28;20638;-85
2023/09/26 02:38:50;;;;;;;0.63;0.53;;;;;;;;;;20645523;28;20228;-86
2023/09/26 02:48:52;;;;;;;1.10;0.67;;;;;;;;;;20670306;28;20223;-84
2023/09/26 02:58:53;;;;;;;0.93;0.47;;;;;;;;;;20664700;28;20231;-88
2023/09/26 03:08:56;;;;;;;1.13;0.80;;;;;;;;;;20682186;28;20223;-87
2023/09/26 03:18:57;;;;;;;1.40;0.80;;;;;;;;;;20664262;28;20228;-84
2023/09/26 03:29:00;;;;;;;1.30;0.80;;;;;;;;;;20671112;28;20240;-84
2023/09/26 03:39:03;;;;;;;1.17;0.60;;;;;;;;;;20653792;28;20290;-83
2023/09/26 03:49:05;;;;;;;2.17;0.90;;;;;;;;;;20676025;28;20760;-83
2023/09/26 03:59:07;;;;;;;1.70;0.90;;;;;;;;;;20664392;28;20282;-82
2023/09/26 04:09:09;;;;;;;0.93;0.70;;;;;;;;;;20632607;28;20220;-82
2023/09/26 04:19:11;;;;;;;1.50;0.80;;;;;;;;;;20632718;28;20685;-82
2023/09/26 04:29:13;;;;;;;1.57;0.90;;;;;;;;;;20679912;28;20310;-81
2023/09/26 04:39:15;;;;;;;0.87;0.70;;;;;;;;;;20637295;28;20236;-82
2023/09/26 04:49:17;;;;;;;1.77;0.90;;;;;;;;;;20629942;28;20227;-83
2023/09/26 04:59:19;;;;;;;3.73;0.97;;;;;;;;;;20639490;28;20286;-84
2023/09/26 05:09:22;;;;;;;5.87;1.10;;;12.80;99.90;;;;;;20646416;28;20220;-85
2023/09/26 05:19:24;;;;;;;1.87;1.00;;;;;;;;;;20654205;28;20569;-84
2023/09/26 05:29:26;;;;;;;5.17;1.20;;;;;;;;;;20673523;28;20251;-82
2023/09/26 05:39:27;;;;;;;5.13;1.17;;;;;;;;;;20680428;28;20235;-84
2023/09/26 05:49:30;;;;;;;2.00;0.80;;;;;;;;;;20624785;28;20215;-83
2023/09/26 05:59:31;;;;;;;1.30;0.90;;;;;;;;;;20660836;28;20706;-83
2023/09/26 06:09:35;;;;;;;3.37;1.10;;;;;;;;;;20626692;28;20311;-83
2023/09/26 06:19:39;;;;;;;3.00;0.70;;;;;;;;;;20637371;28;20255;-82
2023/09/26 06:29:41;;;;;;;1.33;0.70;;;;;;;;;;20632037;28;20289;-82
2023/09/26 06:39:43;;;;;;;1.67;0.93;;;;;;;;;;20617030;28;20354;-83
2023/09/26 06:49:46;;;;;;;1.80;1.07;;;;;;;;;;20630780;28;20250;-83
2023/09/26 06:59:49;;;;;;;2.30;1.20;;;;;;;;;;20620163;28;20286;-83
2023/09/26 07:09:51;;;;;;;2.40;1.40;;;;;;;;;;20639113;28;20207;-82
2023/09/26 07:19:54;;;;;;;1.80;1.30;;;;;;;;;;20667887;28;20231;-83
2023/09/26 07:29:56;;;;;;;3.70;1.97;;;;;;;;;;20637177;28;20633;-82
2023/09/26 07:39:57;;;;;;;2.97;1.83;;;;;;;;;;20646102;28;20303;-83
2023/09/26 07:50:01;;;;;;;2.90;1.90;;;;;;;;;;20644262;28;20213;-85
2023/09/26 08:00:10;;;;;;;3.93;1.60;;;;;;;;;;20628365;28;20228;-82
2023/09/26 08:10:12;;;;;;;2.03;1.67;;;;;;;;;;20628418;28;20331;-83
2023/09/26 08:20:14;;;;;;;2.30;1.80;;;;;;;;;;20667474;28;20220;-83
2023/09/26 08:30:16;;;;;;;4.50;1.83;;;;;;;;;;20622649;28;20643;-83
2023/09/26 08:40:19;;;;;;;2.87;1.80;;;;;;;;;;20668523;28;20675;-82
2023/09/26 08:50:24;;;;;;;4.23;2.30;;;16.10;99.90;;;;;;20674158;28;20763;-82
2023/09/26 09:00:26;;;;;;;3.67;2.50;;;16.50;99.90;;;;;;20655731;28;20281;-82
2023/09/26 09:10:28;;;;;;;2.80;2.17;;;;;;;;;;20655508;28;20278;-84
2023/09/26 09:20:34;;;;;;;3.50;2.27;;;;;;;;;;20630364;28;20736;-82
2023/09/26 09:30:42;;;;;;;3.33;2.40;;;17.00;99.90;;;;;;20627063;28;20227;-83
2023/09/26 09:40:44;;;;;;;2.90;2.20;;;;;;;;;;20638772;28;20267;-82
2023/09/26 09:50:47;;;;;;;3.80;1.93;;;;;;;;;;20641339;28;20220;-84
2023/09/26 10:00:48;;;;;;;3.13;2.27;;;17.90;99.90;;;;;;20639940;28;20289;-84
2023/09/26 10:10:50;;;;;;;4.37;1.80;;;;;;;;;;20656635;28;20227;-83
2023/09/26 10:20:52;;;;;;;2.50;1.50;;;;;;;;;;20612230;28;20224;-83
2023/09/26 10:30:54;;;;;;;2.30;1.60;;;;;;;;;;20641672;28;20270;-83
2023/09/26 10:40:56;;;;;;;1.90;1.37;;;;;;;;;;20638984;28;20236;-83
2023/09/26 10:50:59;;;;;;;2.47;1.47;;;;;;;;;;20665212;28;20282;-83
2023/09/26 11:01:01;;;;;;;2.47;1.47;;;;;;;;;;20642395;28;20221;-83
2023/09/26 11:11:02;;;;;;;2.47;1.27;;;;;;;;;;20673163;28;20224;-85
2023/09/26 11:21:04;;;;;;;2.07;1.30;;;;;;;;;;20672900;28;20699;-84
2023/09/26 11:31:06;;;;;;;5.33;1.30;;;;;;;;;;20652233;28;20690;-83
2023/09/26 11:41:11;;;;;;;2.33;1.07;;;;;;;;;;20635809;28;20696;-85
2023/09/26 11:51:16;;;;;;;1.67;1.03;;;;;;;;;;20623684;28;20545;-83
2023/09/26 12:01:17;;;;;;;4.53;1.23;;;;;;;;;;20676373;28;20222;-82
2023/09/26 12:11:19;;;;;;;1.83;0.93;;;;;;;;;;20666681;28;20253;-84
2023/09/26 12:21:21;;;;;;;1.03;0.77;;;;;;;;;;20679742;28;20227;-84
2023/09/26 12:31:22;;;;;;;1.40;0.90;;;;;;;;;;20651681;28;20253;-84
2023/09/26 12:41:25;;;;;;;1.07;0.70;;;;;;;;;;20650035;28;20979;-84
2023/09/26 12:51:28;;;;;;;1.27;0.87;;;;;;;;;;20665329;28;20222;-84
2023/09/26 13:01:30;;;;;;;1.03;0.70;;;;;;;;;;20662733;28;20232;-84
2023/09/26 13:11:32;;;;;;;1.50;0.90;;;;;;;;;;20656930;28;20210;-84
2023/09/26 13:21:34;;;;;;;0.83;0.57;;;;;;;;;;20598818;28;20224;-83
2023/09/26 13:31:37;;;;;;;1.83;0.70;;;;;;;;;;20642353;28;20307;-85
2023/09/26 13:41:38;;;;;;;1.20;0.60;;;;;;;;;;20663563;28;20293;-84
2023/09/26 13:51:40;;;;;;;1.07;0.60;;;22.10;99.90;;;;;;20617499;28;20568;-84
2023/09/26 14:01:42;;;;;;;0.40;0.40;;;;;;;;;;20605029;28;20237;-84
2023/09/26 14:11:43;;;;;;;1.17;0.70;;;;;;;;;;20630695;28;20219;-85
2023/09/26 14:21:45;;;;;;;1.10;0.70;;;;;;;;;;20644291;28;20237;-85
2023/09/26 14:31:47;;;;;;;1.40;0.70;;;;;;;;;;20612530;28;20303;-86
2023/09/26 14:41:49;;;;;;;0.57;0.50;;;;;;;;;;20627137;28;20740;-86
2023/09/26 14:51:51;;;;;;;1.90;0.70;;;;;;;;;;20693929;28;20263;-86
2023/09/26 15:01:52;;;;;;;0.73;0.50;;;;;;;;;;20713736;28;20235;-85
2023/09/26 15:11:54;;;;;;;0.67;0.50;;;;;;;;;;20671057;28;20630;-88
2023/09/26 15:22:00;;;;;;;1.03;0.50;;;;;;;;;;20680907;28;20300;-86
2023/09/26 15:32:02;;;;;;;1.30;0.50;;;;;;;;;;20627775;28;20237;-85
2023/09/26 15:42:05;;;;;;;2.40;1.23;;;;;;;;;;20632217;28;20228;-84
2023/09/26 15:52:06;;;;;;;1.00;0.50;;;;;;;;;;20663678;28;20284;-85
2023/09/26 16:02:08;;;;;;;2.07;0.70;;;;;;;;;;20607114;28;20734;-86
2023/09/26 16:12:11;;;;;;;0.70;0.50;;;;;;;;;;20693199;28;20284;-85
2023/09/26 16:22:13;;;;;;;1.23;0.60;;;;;;;;;;20658999;28;20261;-85
2023/09/26 16:32:15;;;;;;;1.07;0.87;;;;;;;;;;20632543;28;20333;-86
2023/09/26 16:42:16;;;;;;;1.37;0.90;;;;;;;;;;20627864;28;20217;-85
2023/09/26 16:52:18;;;;;;;1.80;0.93;;;;;;;;;;20699785;28;20277;-85
2023/09/26 17:02:20;;;;;;;1.30;0.90;;;;;;;;;;20625171;28;20218;-85
2023/09/26 17:12:22;;;;;;;1.40;0.70;;;;;;;;;;20636517;28;20214;-85
2023/09/26 17:22:24;;;;;;;1.23;0.70;;;;;;;;;;20651472;28;20222;-84
2023/09/26 17:32:26;;;;;;;1.40;0.80;;;;;;;;;;20645000;28;20589;-84
2023/09/26 17:42:28;;;;;;;1.50;0.87;;;;;;;;;;20666606;28;20296;-83
2023/09/26 17:52:29;;;;;;;1.27;0.80;;;;;;;;;;20615273;28;20265;-84
2023/09/26 18:02:37;;;;;;;3.47;1.20;;;;;;;;;;20631646;28;20334;-82
2023/09/26 18:24:33;;;;;;;2.27;1.20;;;;;;;;;;20658783;28;20238;-84
2023/09/26 18:34:36;;;;;;;1.33;0.80;;;;;;;;;;20688355;28;20214;-84
2023/09/26 18:44:39;;;;;;;4.60;1.30;;;;;;;;;;20660071;28;20226;-84
2023/09/26 18:54:40;;;;;;;2.53;1.03;;;;;;;;;;20671476;28;20213;-83
2023/09/26 19:04:42;;;;;;;2.50;1.30;;;;;;;;;;20670073;28;20231;-83
2023/09/26 19:14:44;;;;;;;1.83;1.33;;;;;;;;;;20687991;28;20234;-84
2023/09/26 19:24:46;;;;;;;2.27;1.10;;;;;;;;;;20646338;28;20228;-85
2023/09/26 19:34:48;;;;;;;1.67;1.27;;;;;;;;;;20652965;28;20617;-85
2023/09/26 19:44:50;;;;;;;1.80;1.27;;;;;;;;;;20626413;28;20225;-85
2023/09/26 19:54:52;;;;;;;2.20;0.97;;;;;;;;;;20646097;28;20256;-86
2023/09/26 20:04:54;;;;;;;4.30;1.63;;;;;;;;;;20684700;28;20263;-81
2023/09/26 20:14:55;;;;;;;1.83;1.20;;;;;;;;;;20660736;28;20696;-83
2023/09/26 20:24:57;;;;;;;2.40;1.20;;;;;;;;;;20681779;28;20291;-83
2023/09/26 20:34:59;;;;;;;2.90;1.43;;;;;;;;;;20651993;28;20247;-84
2023/09/26 20:45:01;;;;;;;1.77;1.20;;;;;;;;;;20702340;28;20277;-85
2023/09/26 20:55:03;;;;;;;2.20;1.50;;;;;;;;;;20634007;28;20274;-85
2023/09/26 21:05:05;;;;;;;5.87;2.13;;;;;;;;;;20641566;28;20228;-85
2023/09/26 21:15:07;;;;;;;4.23;1.60;;;;;;;;;;20632777;28;20243;-84
2023/09/26 21:25:09;;;;;;;2.20;1.60;;;;;;;;;;20666003;28;20236;-86
2023/09/26 21:35:10;;;;;;;3.73;1.50;;;;;;;;;;20630270;28;20274;-85
2023/09/26 21:45:12;;;;;;;1.37;0.90;;;;;;;;;;20705726;28;20239;-86
2023/09/26 21:55:15;;;;;;;1.67;1.10;;;;;;;;;;20669654;28;20778;-84
2023/09/26 22:05:21;;;;;;;2.00;1.20;;;;;;;;;;20665250;28;20297;-86
2023/09/26 22:15:22;;;;;;;1.77;1.07;;;;;;;;;;20622855;28;20809;-84
2023/09/26 22:25:24;;;;;;;1.40;1.00;;;;;;;;;;20655588;28;20215;-84
2023/09/26 22:35:26;;;;;;;3.60;1.30;;;;;;;;;;20641575;28;20929;-85
2023/09/26 22:45:28;;;;;;;1.53;1.10;;;;;;;;;;20647762;28;20227;-85
2023/09/26 22:55:30;;;;;;;2.20;1.30;;;;;;;;;;20660945;28;20228;-84
2023/09/26 23:05:50;;;;;;;2.00;1.30;;;;;;;;;;20654381;28;20270;-85
2023/09/26 23:16:00;;;;;;;1.70;1.10;;;;;;;;;;20655582;28;20224;-85
2023/09/26 23:26:03;;;;;;;1.87;1.13;;;;;;;;;;20679025;28;20235;-86
2023/09/26 23:36:14;;;;;;;2.93;1.20;;;;;;;;;;20666833;28;20255;-86
2023/09/26 23:46:16;;;;;;;1.70;1.20;;;;;;;;;;20663685;28;20223;-85
2023/09/26 23:56:18;;;;;;;1.73;1.20;;;;;;;;;;20654753;28;20707;-85
